Terminal Aerodrome Forecast
Issued by NWS Wilmington, OH

Current Version | Previous Version | Graphics & Text | Print | Product List | Glossary On
Versions: 1 2 3 4 5 6 7 8 9 10 11 12 13 14 15 16 17 18 19 20 21 22
000
FTUS41 KILN 011700
TAFILN
TAF
KILN 011739Z 0118/0218 20006KT P6SM VCSH OVC025
      TEMPO 0118/0119 5SM -SNPLRA OVC018
     FM012200 27007KT P6SM VCSH OVC018
      TEMPO 0122/0124 1/2SM SN OVC008
     FM020300 29009KT P6SM OVC015
     FM021400 31004KT P6SM SCT015
      TEMPO 0214/0218 BKN015=

USA.gov is the U.S. government's official web portal to all federal, state and local government web resources and services.